createdAt,value
2018-09-01T00:00:11.486Z,67.31
2018-09-01T00:02:43.499Z,66.96
2018-09-01T00:05:16.290Z,67.14
2018-09-01T00:07:48.316Z,67.07
2018-09-01T00:10:20.777Z,68.50
2018-09-01T00:12:52.576Z,68.33
2018-09-01T00:15:24.728Z,67.24
2018-09-01T00:17:56.943Z,66.89
2018-09-01T00:20:29.027Z,68.44
2018-09-01T00:23:00.768Z,69.48
2018-09-01T00:32:33.547Z,69.72
2018-09-01T00:35:05.231Z,71.55
2018-09-01T00:37:41.606Z,71.69
2018-09-01T00:40:13.746Z,71.87
2018-09-01T00:42:45.513Z,72.54
2018-09-01T00:45:17.022Z,72.52
2018-09-01T00:47:48.990Z,72.17
2018-09-01T00:50:20.886Z,72.66
2018-09-01T00:52:52.928Z,72.33
2018-09-01T00:55:28.989Z,73.51
2018-09-01T00:58:01.006Z,73.57
2018-09-01T01:00:32.697Z,73.59
2018-09-01T01:03:04.468Z,73.29
2018-09-01T01:05:36.379Z,73.34
2018-09-01T01:08:08.375Z,73.39
2018-09-01T01:10:40.152Z,74.28
2018-09-01T01:13:12.101Z,73.69
2018-09-01T01:15:43.913Z,72.71
2018-09-01T01:18:16.497Z,73.30
2018-09-01T01:20:48.180Z,73.22
2018-09-01T01:23:20.122Z,73.91
2018-09-01T01:25:51.971Z,73.20
2018-09-01T01:28:23.972Z,74.20
2018-09-01T01:30:55.838Z,72.04
2018-09-01T01:33:28.024Z,69.19
2018-09-01T01:35:59.744Z,67.68
2018-09-01T01:38:31.660Z,68.60
2018-09-01T01:41:03.304Z,69.55
2018-09-01T01:43:35.149Z,70.75
2018-09-01T01:46:06.574Z,70.74
2018-09-01T01:48:38.355Z,71.69
2018-09-01T01:51:09.846Z,71.37
2018-09-01T01:53:41.657Z,71.41
2018-09-01T01:56:13.184Z,72.11
2018-09-01T01:58:45.045Z,71.83
2018-09-01T02:01:16.877Z,72.26
2018-09-01T02:03:48.579Z,71.11
2018-09-01T02:06:20.210Z,71.33
2018-09-01T02:08:52.007Z,71.74
2018-09-01T02:11:23.793Z,71.71
2018-09-01T02:13:55.365Z,70.89
2018-09-01T02:16:27.019Z,71.62
2018-09-01T02:18:59.404Z,71.88
2018-09-01T02:21:31.124Z,72.27
2018-09-01T02:24:02.745Z,72.50
2018-09-01T02:26:34.374Z,72.54
2018-09-01T02:29:06.155Z,71.55
2018-09-01T02:31:37.926Z,71.81
2018-09-01T02:34:09.718Z,72.63
2018-09-01T02:36:41.504Z,72.31
2018-09-01T02:39:13.187Z,72.24
2018-09-01T02:41:44.934Z,72.47
2018-09-01T02:44:16.733Z,72.72
2018-09-01T02:46:48.222Z,72.69
2018-09-01T02:49:20.273Z,72.16
2018-09-01T02:51:51.720Z,72.81
2018-09-01T02:54:23.640Z,72.77
2018-09-01T02:56:55.127Z,72.48
2018-09-01T02:59:26.884Z,72.31
2018-09-01T03:01:58.331Z,71.30
2018-09-01T03:04:29.991Z,71.69
2018-09-01T03:07:02.409Z,72.42
2018-09-01T03:09:34.279Z,72.76
2018-09-01T03:12:05.977Z,72.76
2018-09-01T03:14:37.608Z,72.87
2018-09-01T03:17:09.308Z,71.97
2018-09-01T03:19:41.609Z,71.71
2018-09-01T03:22:13.251Z,72.03
2018-09-01T03:24:45.201Z,71.50
2018-09-01T03:27:16.990Z,71.55
2018-09-01T03:29:48.831Z,71.84
2018-09-01T03:32:20.816Z,72.08
2018-09-01T03:34:52.301Z,72.35
2018-09-01T03:37:23.965Z,72.83
2018-09-01T03:39:55.556Z,71.98
2018-09-01T03:42:27.418Z,74.49
2018-09-01T03:44:59.137Z,76.16
2018-09-01T03:47:30.801Z,76.25
2018-09-01T03:50:02.686Z,77.10
2018-09-01T03:52:34.279Z,77.64
2018-09-01T03:55:06.052Z,78.19
2018-09-01T03:57:37.872Z,79.23
2018-09-01T04:00:09.793Z,79.88
2018-09-01T04:02:41.359Z,80.59
2018-09-01T04:05:13.181Z,80.33
2018-09-01T04:07:45.352Z,80.28
2018-09-01T04:17:18.429Z,80.69
2018-09-01T04:19:50.515Z,81.84
2018-09-01T04:22:22.399Z,82.33
2018-09-01T04:24:54.060Z,82.22
2018-09-01T04:27:25.676Z,81.77
2018-09-01T04:29:57.462Z,81.97
2018-09-01T04:32:29.302Z,81.95
2018-09-01T04:35:00.875Z,81.97
2018-09-01T04:37:32.516Z,81.37
2018-09-01T04:40:04.393Z,82.43
2018-09-01T04:42:36.799Z,81.54
2018-09-01T04:45:09.369Z,82.59
2018-09-01T04:47:41.102Z,81.04
2018-09-01T04:50:13.002Z,80.89
2018-09-01T04:52:44.994Z,82.14
2018-09-01T04:55:16.806Z,81.97
2018-09-01T04:57:48.568Z,81.63
2018-09-01T05:00:23.406Z,82.79
2018-09-01T05:02:55.620Z,82.55
2018-09-01T05:05:27.377Z,81.43
2018-09-01T05:08:00.431Z,82.54
2018-09-01T05:10:32.402Z,82.34
2018-09-01T05:13:03.965Z,81.56
2018-09-01T05:15:35.536Z,81.61
2018-09-01T05:18:07.394Z,82.36
2018-09-01T05:20:39.169Z,81.99
2018-09-01T05:23:10.888Z,80.98
2018-09-01T05:25:43.002Z,81.21
2018-09-01T05:28:14.786Z,81.09
2018-09-01T05:30:46.624Z,81.09
2018-09-01T05:33:18.783Z,81.31
2018-09-01T05:35:50.527Z,81.19
2018-09-01T05:38:22.304Z,81.31
2018-09-01T05:40:54.057Z,81.50
2018-09-01T05:43:25.895Z,81.76
2018-09-01T05:45:57.522Z,81.09
2018-09-01T05:48:30.559Z,80.81
2018-09-01T05:51:02.065Z,81.63
2018-09-01T05:53:34.005Z,81.30
2018-09-01T05:56:05.908Z,81.46
2018-09-01T05:58:37.675Z,81.52
2018-09-01T06:01:09.234Z,82.27
2018-09-01T06:03:41.244Z,82.55
2018-09-01T06:06:13.256Z,82.30
2018-09-01T06:08:44.924Z,81.76
2018-09-01T06:11:16.623Z,81.21
2018-09-01T06:13:48.366Z,79.84
2018-09-01T06:16:20.104Z,80.53
2018-09-01T06:18:51.746Z,79.80
2018-09-01T06:21:23.457Z,80.03
2018-09-01T06:23:55.043Z,80.78
2018-09-01T06:26:26.749Z,82.21
2018-09-01T06:29:03.010Z,81.83
2018-09-01T06:31:35.121Z,82.07
2018-09-01T06:34:06.858Z,81.65
2018-09-01T06:36:39.009Z,81.79
2018-09-01T06:39:11.158Z,82.32
2018-09-01T06:41:42.716Z,80.94
2018-09-01T06:44:14.770Z,81.21
2018-09-01T06:46:46.553Z,80.80
2018-09-01T06:49:18.959Z,81.36
2018-09-01T06:51:50.938Z,81.33
2018-09-01T06:54:22.560Z,81.01
2018-09-01T06:56:54.381Z,81.44
2018-09-01T06:59:26.258Z,81.83
2018-09-01T07:01:58.189Z,81.31
2018-09-01T07:04:29.962Z,81.56
2018-09-01T07:07:01.804Z,80.35
2018-09-01T07:09:33.743Z,81.27
2018-09-01T07:12:05.588Z,81.37
2018-09-01T07:14:37.349Z,81.27
2018-09-01T07:17:08.978Z,81.48
2018-09-01T07:19:40.872Z,80.89
2018-09-01T07:22:12.748Z,81.52
2018-09-01T07:24:48.673Z,81.87
2018-09-01T07:27:20.360Z,81.22
2018-09-01T07:29:52.122Z,82.41
2018-09-01T07:32:23.887Z,81.86
2018-09-01T07:34:55.843Z,81.81
2018-09-01T07:37:28.047Z,81.37
2018-09-01T07:40:00.011Z,81.83
2018-09-01T07:42:31.900Z,82.39
2018-09-01T07:45:03.540Z,81.12
2018-09-01T07:47:35.420Z,82.30
2018-09-01T07:50:07.296Z,81.32
2018-09-01T07:52:39.185Z,80.79
2018-09-01T07:55:11.112Z,79.57
2018-09-01T07:57:43.245Z,80.37
2018-09-01T08:00:15.148Z,80.59
2018-09-01T08:02:47.045Z,80.48
2018-09-01T08:05:19.151Z,79.28
2018-09-01T08:07:50.904Z,78.94
2018-09-01T08:10:22.819Z,78.74
2018-09-01T08:12:54.719Z,78.84
2018-09-01T08:15:26.323Z,79.28
2018-09-01T08:17:58.429Z,77.44
2018-09-01T08:20:30.459Z,77.16
2018-09-01T08:23:02.384Z,78.05
2018-09-01T08:25:34.457Z,77.46
2018-09-01T08:28:06.257Z,78.69
2018-09-01T08:30:38.815Z,78.54
2018-09-01T08:33:10.575Z,79.48
2018-09-01T08:35:42.389Z,77.92
2018-09-01T08:38:14.915Z,77.58
2018-09-01T08:40:46.901Z,77.40
2018-09-01T08:43:18.714Z,78.13
2018-09-01T08:45:50.501Z,77.97
2018-09-01T08:48:22.340Z,77.54
2018-09-01T08:50:53.932Z,78.05
2018-09-01T08:53:25.600Z,78.65
2018-09-01T08:55:57.431Z,78.08
2018-09-01T08:58:29.338Z,78.78
2018-09-01T09:01:01.034Z,77.95
2018-09-01T09:03:32.952Z,78.34
2018-09-01T09:06:04.779Z,76.94
2018-09-01T09:08:36.336Z,76.52
2018-09-01T09:11:08.408Z,76.26
2018-09-01T09:13:40.405Z,77.45
2018-09-01T09:16:12.329Z,77.58
2018-09-01T09:18:44.143Z,76.88
2018-09-01T09:21:16.423Z,77.53
2018-09-01T09:23:48.316Z,77.04
2018-09-01T09:26:20.376Z,75.95
2018-09-01T09:28:52.166Z,77.95
2018-09-01T09:31:24.053Z,76.53
2018-09-01T09:33:56.166Z,76.75
2018-09-01T09:36:27.878Z,76.26
2018-09-01T09:39:00.141Z,76.62
2018-09-01T09:41:32.042Z,76.82
2018-09-01T09:44:03.901Z,76.42
2018-09-01T09:46:35.907Z,76.23
2018-09-01T09:49:07.829Z,77.50
2018-09-01T09:51:39.418Z,77.06
2018-09-01T09:54:11.077Z,77.40
2018-09-01T09:56:43.087Z,76.92
2018-09-01T09:59:15.286Z,77.17
2018-09-01T10:01:47.036Z,77.65
2018-09-01T10:04:19.052Z,78.68
2018-09-01T10:06:55.515Z,78.99
2018-09-01T10:09:27.553Z,79.33
2018-09-01T10:11:59.147Z,78.84
2018-09-01T10:14:31.064Z,79.20
2018-09-01T10:17:02.651Z,79.72
2018-09-01T10:19:34.556Z,78.93
2018-09-01T10:22:06.379Z,78.35
2018-09-01T10:24:37.987Z,79.29
2018-09-01T10:27:10.038Z,79.02
2018-09-01T10:29:41.714Z,79.43
2018-09-01T10:32:13.622Z,80.23
2018-09-01T10:34:45.342Z,80.52
2018-09-01T10:37:17.597Z,80.22
2018-09-01T10:39:49.704Z,80.60
2018-09-01T10:42:21.569Z,80.22
2018-09-01T10:44:53.447Z,81.08
2018-09-01T10:47:25.490Z,80.67
2018-09-01T10:49:57.322Z,81.54
2018-09-01T10:52:29.223Z,81.12
2018-09-01T10:55:01.602Z,81.32
2018-09-01T10:57:33.518Z,81.69
2018-09-01T11:00:05.215Z,82.12
2018-09-01T11:02:37.154Z,81.69
2018-09-01T11:05:08.879Z,83.03
2018-09-01T11:07:40.670Z,83.27
2018-09-01T11:10:12.489Z,82.67
2018-09-01T11:12:44.363Z,82.63
2018-09-01T11:15:16.274Z,83.27
2018-09-01T11:17:48.122Z,84.00
2018-09-01T11:20:20.191Z,83.76
2018-09-01T11:22:52.069Z,83.98
2018-09-01T11:25:23.771Z,84.40
2018-09-01T11:27:56.134Z,81.95
2018-09-01T11:30:28.026Z,80.15
2018-09-01T11:32:59.919Z,79.94
2018-09-01T11:35:31.875Z,80.13
2018-09-01T11:38:03.578Z,80.87
2018-09-01T11:40:35.228Z,80.39
2018-09-01T11:43:06.993Z,80.44
2018-09-01T11:45:38.781Z,80.84
2018-09-01T11:48:10.641Z,81.33
2018-09-01T11:50:42.561Z,80.86
2018-09-01T11:53:23.370Z,80.96
2018-09-01T11:56:03.015Z,80.52
2018-09-01T11:58:42.004Z,81.26
2018-09-01T12:01:15.416Z,80.62
2018-09-01T12:03:58.653Z,80.87
2018-09-01T12:06:36.838Z,81.49
2018-09-01T12:09:09.620Z,80.69
2018-09-01T12:11:41.259Z,80.85
2018-09-01T12:14:13.316Z,80.82
2018-09-01T12:16:44.999Z,80.92
2018-09-01T12:19:17.010Z,80.72
2018-09-01T12:21:48.895Z,81.19
2018-09-01T12:24:20.868Z,81.37
2018-09-01T12:26:52.738Z,80.90
2018-09-01T12:29:24.678Z,81.42
2018-09-01T12:31:56.573Z,80.58
2018-09-01T12:34:28.781Z,81.13
2018-09-01T12:37:00.550Z,81.02
2018-09-01T12:39:32.908Z,81.27
2018-09-01T12:42:04.933Z,80.97
2018-09-01T12:44:36.808Z,81.46
2018-09-01T12:47:08.743Z,80.57
2018-09-01T12:49:40.538Z,80.79
2018-09-01T12:52:12.251Z,80.24
2018-09-01T12:54:43.902Z,80.30
2018-09-01T12:57:16.826Z,80.21
2018-09-01T12:59:48.641Z,79.21
2018-09-01T13:02:22.331Z,80.18
2018-09-01T13:04:54.119Z,80.63
2018-09-01T13:07:26.923Z,80.60
2018-09-01T13:09:58.798Z,80.22
2018-09-01T13:12:30.833Z,80.51
2018-09-01T13:15:02.741Z,80.74
2018-09-01T13:17:34.322Z,81.43
2018-09-01T13:20:06.488Z,80.65
2018-09-01T13:22:38.318Z,80.66
2018-09-01T13:25:10.133Z,81.19
2018-09-01T13:27:41.822Z,81.63
2018-09-01T13:30:13.923Z,80.96
2018-09-01T13:33:48.126Z,81.80
2018-09-01T13:36:20.078Z,81.26
2018-09-01T13:38:51.655Z,81.46
2018-09-01T13:41:23.526Z,82.34
2018-09-01T13:43:56.136Z,81.50
2018-09-01T13:46:27.904Z,81.23
2018-09-01T13:48:59.684Z,81.91
2018-09-01T13:51:31.397Z,82.12
2018-09-01T13:54:03.089Z,81.98
2018-09-01T13:56:34.994Z,81.75
2018-09-01T13:59:07.694Z,81.48
2018-09-01T14:01:39.827Z,81.81
2018-09-01T14:04:11.643Z,81.30
2018-09-01T14:06:43.501Z,81.31
2018-09-01T14:09:15.405Z,81.79
2018-09-01T14:11:47.210Z,81.50
2018-09-01T14:14:18.881Z,82.29
2018-09-01T14:16:50.932Z,82.44
2018-09-01T14:19:22.792Z,82.44
2018-09-01T14:21:54.611Z,81.72
2018-09-01T14:24:26.350Z,82.08
2018-09-01T14:26:57.970Z,81.84
2018-09-01T14:29:29.595Z,82.32
2018-09-01T14:32:01.535Z,81.71
2018-09-01T14:34:33.328Z,82.50
2018-09-01T14:37:05.061Z,81.93
2018-09-01T14:39:36.815Z,82.77
2018-09-01T14:42:08.743Z,81.91
2018-09-01T14:44:40.601Z,82.61
2018-09-01T14:47:12.724Z,82.30
2018-09-01T14:49:44.562Z,83.13
2018-09-01T14:52:16.576Z,82.32
2018-09-01T14:54:48.701Z,82.78
2018-09-01T14:57:20.482Z,82.38
2018-09-01T14:59:53.136Z,82.38
2018-09-01T15:02:25.151Z,83.11
2018-09-01T15:04:57.059Z,82.30
2018-09-01T15:07:29.475Z,82.72
2018-09-01T15:10:01.239Z,82.88
2018-09-01T15:12:33.269Z,82.99
2018-09-01T15:15:04.707Z,82.98
2018-09-01T15:17:36.518Z,83.21
2018-09-01T15:20:08.515Z,83.02
2018-09-01T15:22:40.285Z,82.82
2018-09-01T15:25:11.957Z,81.82
2018-09-01T15:27:43.629Z,81.69
2018-09-01T15:30:15.454Z,82.17
2018-09-01T15:32:47.385Z,81.99
2018-09-01T15:35:19.368Z,82.41
2018-09-01T15:37:51.202Z,82.57
2018-09-01T15:40:22.627Z,81.71
2018-09-01T15:42:54.651Z,81.78
2018-09-01T15:45:26.731Z,77.58
2018-09-01T15:47:58.574Z,75.73
2018-09-01T15:50:30.503Z,75.88
2018-09-01T15:53:02.218Z,77.43
2018-09-01T15:55:33.846Z,78.83
2018-09-01T15:58:05.485Z,79.46
2018-09-01T16:00:37.643Z,79.60
2018-09-01T16:03:09.584Z,79.46
2018-09-01T16:05:41.064Z,80.19
2018-09-01T16:08:13.030Z,79.52
2018-09-01T16:10:44.742Z,79.46
2018-09-01T16:13:16.960Z,80.23
2018-09-01T16:15:48.696Z,80.46
2018-09-01T16:18:20.569Z,80.33
2018-09-01T16:20:52.349Z,80.45
2018-09-01T16:23:24.059Z,80.04
2018-09-01T16:25:56.029Z,80.38
2018-09-01T16:28:27.683Z,80.58
2018-09-01T16:30:59.755Z,79.87
2018-09-01T16:33:31.722Z,79.66
2018-09-01T16:36:03.690Z,80.36
2018-09-01T16:38:35.417Z,79.86
2018-09-01T16:41:07.239Z,80.35
2018-09-01T16:43:39.013Z,79.75
2018-09-01T16:46:10.720Z,80.31
2018-09-01T16:48:42.534Z,80.41
2018-09-01T16:51:14.415Z,80.40
2018-09-01T16:53:46.022Z,80.44
2018-09-01T16:56:17.784Z,79.54
2018-09-01T16:58:49.284Z,79.94
2018-09-01T17:01:22.039Z,80.22
2018-09-01T17:03:53.888Z,80.32
2018-09-01T17:06:25.459Z,79.45
2018-09-01T17:08:57.450Z,79.55
2018-09-01T17:11:29.487Z,80.13
2018-09-01T17:14:01.292Z,80.01
2018-09-01T17:16:32.928Z,79.56
2018-09-01T17:19:04.869Z,79.49
2018-09-01T17:21:36.465Z,80.42
2018-09-01T17:24:08.271Z,79.84
2018-09-01T17:26:40.120Z,80.07
2018-09-01T17:29:11.830Z,79.29
2018-09-01T17:31:43.553Z,78.69
2018-09-01T17:34:15.459Z,79.35
2018-09-01T17:36:47.106Z,77.26
2018-09-01T17:39:18.996Z,77.44
2018-09-01T17:41:50.422Z,78.06
2018-09-01T17:44:22.225Z,77.93
2018-09-01T17:46:53.911Z,77.43
2018-09-01T17:49:25.882Z,77.35
2018-09-01T17:51:57.726Z,76.84
2018-09-01T17:54:30.243Z,78.14
2018-09-01T17:57:02.187Z,78.02
2018-09-01T17:59:34.052Z,78.04
2018-09-01T18:02:06.556Z,77.74
2018-09-01T18:04:38.551Z,77.46
2018-09-01T18:07:10.067Z,77.19
2018-09-01T18:09:41.868Z,77.62
2018-09-01T18:12:13.722Z,77.13
2018-09-01T18:14:45.815Z,76.44
2018-09-01T18:17:18.268Z,76.50
2018-09-01T18:19:50.103Z,76.02
2018-09-01T18:22:21.950Z,76.05
2018-09-01T18:24:53.643Z,76.38
2018-09-01T18:27:25.180Z,75.97
2018-09-01T18:29:57.016Z,75.99
2018-09-01T18:32:28.655Z,75.65
2018-09-01T18:35:00.774Z,73.06
2018-09-01T18:37:32.537Z,71.20
2018-09-01T18:40:04.558Z,71.39
2018-09-01T18:42:36.318Z,71.77
2018-09-01T18:45:08.556Z,72.23
2018-09-01T18:47:40.237Z,74.59
2018-09-01T18:50:11.838Z,74.43
2018-09-01T18:52:43.499Z,74.94
2018-09-01T18:55:15.371Z,75.14
2018-09-01T18:57:47.826Z,75.59
2018-09-01T19:00:19.837Z,75.49
2018-09-01T19:02:51.883Z,76.10
2018-09-01T19:05:23.833Z,75.98
2018-09-01T19:07:55.502Z,76.41
2018-09-01T19:10:27.683Z,75.84
2018-09-01T19:12:59.485Z,75.92
2018-09-01T19:15:31.218Z,76.11
2018-09-01T19:18:02.897Z,76.99
2018-09-01T19:20:34.776Z,77.43
2018-09-01T19:23:06.428Z,76.47
2018-09-01T19:25:38.296Z,76.14
2018-09-01T19:28:09.942Z,76.24
2018-09-01T19:30:41.800Z,76.23
2018-09-01T19:33:13.707Z,74.33
2018-09-01T19:35:45.586Z,70.82
2018-09-01T19:38:17.172Z,71.07
2018-09-01T19:40:49.149Z,72.13
2018-09-01T19:43:22.035Z,72.91
2018-09-01T19:45:53.814Z,73.05
2018-09-01T19:48:25.466Z,74.18
2018-09-01T19:50:57.307Z,74.36
2018-09-01T19:53:29.234Z,75.60
2018-09-01T19:56:01.010Z,75.24
2018-09-01T19:58:32.661Z,75.12
2018-09-01T20:01:04.471Z,75.82
2018-09-01T20:03:35.893Z,75.20
2018-09-01T20:06:07.727Z,74.69
2018-09-01T20:08:39.363Z,76.45
2018-09-01T20:11:11.320Z,75.50
2018-09-01T20:13:43.087Z,75.99
2018-09-01T20:16:14.968Z,75.94
2018-09-01T20:18:46.727Z,76.56
2018-09-01T20:21:18.494Z,76.15
2018-09-01T20:23:50.147Z,75.81
2018-09-01T20:26:22.042Z,75.82
2018-09-01T20:28:53.694Z,75.82
2018-09-01T20:31:25.589Z,75.89
2018-09-01T20:33:57.398Z,75.47
2018-09-01T20:36:30.373Z,76.26
2018-09-01T20:39:02.044Z,76.19
2018-09-01T20:41:34.964Z,76.32
2018-09-01T20:44:07.092Z,75.96
2018-09-01T20:46:38.916Z,75.62
2018-09-01T20:49:10.380Z,76.16
2018-09-01T20:51:42.224Z,76.46
2018-09-01T20:54:13.643Z,76.24
2018-09-01T20:56:45.698Z,75.41
2018-09-01T20:59:17.182Z,76.04
2018-09-01T21:01:49.091Z,76.66
2018-09-01T21:04:20.680Z,76.66
2018-09-01T21:06:52.528Z,75.76
2018-09-01T21:09:24.199Z,75.66
2018-09-01T21:11:56.356Z,75.28
2018-09-01T21:14:28.087Z,75.66
2018-09-01T21:16:59.820Z,75.30
2018-09-01T21:19:31.481Z,75.74
2018-09-01T21:22:03.341Z,76.57
2018-09-01T21:24:34.943Z,76.72
2018-09-01T21:27:06.913Z,77.04
2018-09-01T21:29:38.721Z,76.86
2018-09-01T21:32:10.613Z,76.78
2018-09-01T21:34:42.260Z,76.73
2018-09-01T21:37:14.049Z,76.42
2018-09-01T21:39:45.742Z,76.42
2018-09-01T21:42:17.681Z,76.69
2018-09-01T21:44:49.438Z,76.96
2018-09-01T21:47:21.579Z,76.15
2018-09-01T21:49:53.439Z,76.46
2018-09-01T21:52:25.339Z,76.43
2018-09-01T21:54:57.171Z,76.09
2018-09-01T21:57:29.192Z,76.09
2018-09-01T22:00:00.681Z,76.72
2018-09-01T22:02:32.456Z,76.16
2018-09-01T22:05:09.054Z,76.73
2018-09-01T22:07:40.923Z,77.63
2018-09-01T22:10:12.589Z,77.86
2018-09-01T22:12:44.142Z,76.88
2018-09-01T22:15:15.921Z,76.13
2018-09-01T22:17:47.528Z,75.48
2018-09-01T22:20:19.254Z,75.91
2018-09-01T22:22:51.037Z,76.52
2018-09-01T22:25:22.679Z,76.81
2018-09-01T22:27:54.633Z,76.54
2018-09-01T22:30:26.486Z,75.55
2018-09-01T22:32:58.241Z,76.89
2018-09-01T22:35:30.225Z,76.69
2018-09-01T22:38:02.433Z,76.05
2018-09-01T22:40:34.234Z,76.36
2018-09-01T22:43:06.004Z,75.93
2018-09-01T22:45:37.719Z,76.67
2018-09-01T22:48:09.381Z,76.52
2018-09-01T22:50:40.960Z,75.88
2018-09-01T22:53:12.735Z,76.34
2018-09-01T22:55:44.284Z,75.44
2018-09-01T22:58:16.167Z,76.41
2018-09-01T23:00:47.572Z,76.33
2018-09-01T23:03:19.638Z,76.19
2018-09-01T23:05:51.185Z,75.65
2018-09-01T23:08:22.978Z,76.25
2018-09-01T23:10:54.654Z,76.91
2018-09-01T23:13:26.547Z,76.68
2018-09-01T23:15:58.228Z,76.36
2018-09-01T23:18:30.021Z,76.37
2018-09-01T23:21:01.720Z,76.99
2018-09-01T23:23:33.545Z,77.45
2018-09-01T23:26:05.190Z,77.26
2018-09-01T23:28:37.057Z,77.32
2018-09-01T23:31:08.728Z,77.06
2018-09-01T23:33:40.550Z,77.29
2018-09-01T23:36:12.389Z,76.52
2018-09-01T23:38:45.100Z,77.34
2018-09-01T23:41:16.733Z,76.29
2018-09-01T23:43:48.479Z,76.18
2018-09-01T23:46:20.237Z,77.44
2018-09-01T23:48:52.337Z,77.32
2018-09-01T23:51:24.028Z,77.56
2018-09-01T23:53:55.854Z,77.08
2018-09-01T23:56:27.560Z,76.82
2018-09-01T23:58:59.481Z,76.97
